Time;durP1;ratioP1;P1;durP2;ratioP2;P2;SDS_P1;SDS_P2;PMS_P1;PMS_P2;Temp;Humidity;BMP_temperature;BMP_pressure;BME280_temperature;BME280_humidity;BME280_pressure;Samples;Min_cycle;Max_cycle;Signal;HPM_P1;HPM_P2
2022/12/28 00:01:07;;;;;;;3.43;2.60;;;5.40;99.90;;;;;;6122744;23;20411;-62
2022/12/28 00:03:34;;;;;;;4.37;1.87;;;5.40;99.90;;;;;;6123691;23;20404;-62
2022/12/28 00:06:08;;;;;;;3.20;1.77;;;5.40;99.90;;;;;;6123955;23;20402;-63
2022/12/28 00:08:37;;;;;;;2.63;2.20;;;5.30;99.90;;;;;;6123559;23;20379;-61
2022/12/28 00:11:07;;;;;;;2.23;1.80;;;5.40;99.90;;;;;;6123756;23;20415;-62
2022/12/28 00:13:35;;;;;;;3.43;2.20;;;5.40;99.90;;;;;;6123079;23;20388;-60
2022/12/28 00:16:07;;;;;;;4.10;1.90;;;5.40;99.90;;;;;;6121983;23;20420;-63
2022/12/28 00:18:35;;;;;;;3.30;2.90;;;5.40;99.90;;;;;;6116262;23;20498;-61
2022/12/28 00:21:12;;;;;;;3.20;2.03;;;5.40;99.90;;;;;;6122301;23;20396;-61
2022/12/28 00:23:39;;;;;;;3.60;2.00;;;5.40;99.90;;;;;;6122887;23;20655;-62
2022/12/28 00:26:08;;;;;;;2.33;1.70;;;5.40;99.90;;;;;;6123266;23;20388;-62
2022/12/28 00:28:37;;;;;;;2.30;1.77;;;5.40;99.90;;;;;;6123079;23;20408;-59
2022/12/28 00:31:04;;;;;;;3.53;1.80;;;5.50;99.90;;;;;;6123219;23;20414;-62
2022/12/28 00:33:31;;;;;;;9.17;2.77;;;5.50;99.90;;;;;;6123231;23;20408;-61
2022/12/28 00:36:02;;;;;;;12.70;2.87;;;5.40;99.90;;;;;;6123346;23;20809;-60
2022/12/28 00:38:31;;;;;;;3.00;1.93;;;5.50;99.90;;;;;;6124115;23;20408;-61
2022/12/28 00:41:04;;;;;;;2.37;1.73;;;5.50;99.90;;;;;;6123249;23;20503;-63
2022/12/28 00:43:31;;;;;;;3.90;1.70;;;5.50;99.90;;;;;;6122679;23;20395;-62
2022/12/28 00:46:00;;;;;;;5.37;1.90;;;5.60;99.90;;;;;;6122281;23;20426;-64
2022/12/28 00:48:28;;;;;;;3.67;2.30;;;5.50;99.90;;;;;;6122968;23;20391;-60
2022/12/28 00:51:02;;;;;;;2.73;2.00;;;5.60;99.90;;;;;;6123666;23;20416;-57
2022/12/28 00:53:28;;;;;;;3.10;1.97;;;5.70;99.90;;;;;;6123804;23;20604;-63
2022/12/28 00:56:05;;;;;;;3.80;2.20;;;5.60;99.90;;;;;;6122617;23;20418;-61
2022/12/28 00:58:34;;;;;;;2.50;1.70;;;5.70;99.90;;;;;;6123394;23;20491;-62
2022/12/28 01:01:02;;;;;;;5.10;2.80;;;5.70;99.90;;;;;;6123228;23;20428;-62
2022/12/28 01:03:29;;;;;;;4.80;2.20;;;5.70;99.90;;;;;;6122864;23;20404;-63
2022/12/28 01:05:56;;;;;;;4.63;2.13;;;5.70;99.90;;;;;;6122674;23;20439;-62
2022/12/28 01:08:23;;;;;;;9.87;2.20;;;5.70;99.90;;;;;;6123179;23;20407;-63
2022/12/28 01:10:57;;;;;;;1.80;1.57;;;5.80;99.90;;;;;;6122080;23;20443;-63
2022/12/28 01:13:24;;;;;;;7.10;1.93;;;5.80;99.90;;;;;;6122908;23;20415;-62
2022/12/28 01:15:52;;;;;;;2.50;1.83;;;5.80;99.90;;;;;;6118258;23;20436;-62
2022/12/28 01:18:22;;;;;;;5.00;2.03;;;5.90;99.90;;;;;;6121789;23;20459;-62
2022/12/28 01:20:50;;;;;;;3.77;2.10;;;5.90;99.90;;;;;;6121902;23;20428;-62
2022/12/28 01:23:17;;;;;;;2.20;2.00;;;5.80;99.90;;;;;;6122408;23;20403;-62
2022/12/28 01:25:51;;;;;;;3.77;2.80;;;5.90;99.90;;;;;;6122253;23;20452;-65
2022/12/28 01:28:18;;;;;;;8.80;2.30;;;5.90;99.90;;;;;;6123009;23;20392;-61
2022/12/28 01:30:56;;;;;;;2.73;1.80;;;5.90;99.90;;;;;;6123108;23;20423;-62
2022/12/28 01:33:25;;;;;;;3.40;1.83;;;5.90;99.90;;;;;;6122621;23;20384;-62
2022/12/28 01:35:52;;;;;;;6.43;2.17;;;5.90;99.90;;;;;;6122527;23;20411;-60
2022/12/28 01:38:21;;;;;;;4.77;2.10;;;5.90;99.90;;;;;;6123060;23;20368;-60
2022/12/28 01:40:48;;;;;;;5.33;2.17;;;5.80;99.90;;;;;;6122177;23;20416;-59
2022/12/28 01:43:17;;;;;;;4.83;2.47;;;5.80;99.90;;;;;;6121974;23;20790;-62
2022/12/28 01:45:52;;;;;;;3.63;2.23;;;5.80;99.90;;;;;;6121863;23;20395;-62
2022/12/28 01:48:23;;;;;;;2.93;1.60;;;5.80;99.90;;;;;;6121521;23;20391;-62
2022/12/28 01:50:52;;;;;;;3.23;1.90;;;5.80;99.90;;;;;;6122328;23;20399;-62
2022/12/28 01:53:22;;;;;;;3.40;1.87;;;5.80;99.90;;;;;;6122347;23;20372;-62
2022/12/28 01:55:49;;;;;;;2.70;1.87;;;5.70;99.90;;;;;;6121708;23;20447;-61
2022/12/28 01:58:20;;;;;;;3.97;2.20;;;5.70;99.90;;;;;;6121604;23;20371;-60
2022/12/28 02:00:59;;;;;;;2.10;1.90;;;5.70;99.90;;;;;;6121633;23;20395;-59
2022/12/28 02:03:31;;;;;;;2.50;2.00;;;5.70;99.90;;;;;;6121673;23;20415;-63
2022/12/28 02:06:08;;;;;;;1.83;1.57;;;5.60;99.90;;;;;;6120971;23;20463;-61
2022/12/28 02:08:41;;;;;;;4.57;2.70;;;5.60;99.90;;;;;;6121067;23;20399;-62
2022/12/28 02:11:13;;;;;;;5.27;2.00;;;5.60;99.90;;;;;;6121811;23;20399;-60
2022/12/28 02:13:45;;;;;;;5.20;2.70;;;5.60;99.90;;;;;;6121587;23;20422;-59
2022/12/28 02:16:21;;;;;;;3.33;2.50;;;5.50;99.90;;;;;;6121353;23;20411;-58
2022/12/28 02:18:48;;;;;;;2.50;1.70;;;5.50;99.90;;;;;;6121665;23;20905;-62
2022/12/28 02:21:26;;;;;;;4.63;2.40;;;5.50;99.90;;;;;;6122879;23;20403;-60
2022/12/28 02:24:19;;;;;;;5.67;1.77;;;5.50;99.90;;;;;;6122540;23;20407;-63
2022/12/28 02:27:02;;;;;;;2.33;1.80;;;5.40;99.90;;;;;;6102332;23;20447;-58
2022/12/28 02:29:53;;;;;;;3.10;2.20;;;5.40;99.90;;;;;;6121426;23;20416;-61
2022/12/28 02:32:34;;;;;;;4.60;3.20;;;5.30;99.90;;;;;;6121690;23;20447;-60
2022/12/28 02:35:07;;;;;;;2.77;2.10;;;5.40;99.90;;;;;;6121492;23;20430;-58
2022/12/28 02:37:40;;;;;;;4.40;2.97;;;5.40;99.90;;;;;;6121089;23;20514;-62
2022/12/28 02:40:12;;;;;;;6.13;2.23;;;5.30;99.90;;;;;;6114679;23;20416;-62
2022/12/28 02:42:40;;;;;;;2.10;1.70;;;5.30;99.90;;;;;;6121423;23;20415;-64
2022/12/28 02:51:20;;;;;;;3.40;2.40;;;5.20;99.90;;;;;;6117880;23;20363;-60
2022/12/28 02:57:06;;;;;;;2.90;2.33;;;5.20;99.90;;;;;;6121964;23;20416;-54
2022/12/28 02:59:52;;;;;;;4.47;2.63;;;5.20;99.90;;;;;;6123706;23;20420;-61
2022/12/28 03:02:40;;;;;;;2.87;2.30;;;5.20;99.90;;;;;;6122278;23;20427;-61
2022/12/28 03:05:14;;;;;;;3.90;1.83;;;5.10;99.90;;;;;;6120914;23;20422;-62
2022/12/28 03:10:45;;;;;;;4.40;2.70;;;5.00;99.90;;;;;;6121872;23;20411;-62
2022/12/28 03:16:08;;;;;;;4.50;2.53;;;5.00;99.90;;;;;;6121765;23;20411;-61
2022/12/28 03:32:52;;;;;;;5.50;2.40;;;4.90;99.90;;;;;;6120943;23;20427;-61
2022/12/28 03:35:28;;;;;;;2.97;2.30;;;4.80;99.90;;;;;;6122903;23;20388;-59
2022/12/28 03:38:00;;;;;;;4.43;4.03;;;4.80;99.90;;;;;;6123075;23;20431;-62
2022/12/28 03:40:34;;;;;;;5.00;1.70;;;4.70;99.90;;;;;;6123116;23;20418;-61
2022/12/28 03:45:55;;;;;;;2.87;2.47;;;4.70;99.90;;;;;;6123475;23;20380;-63
2022/12/28 03:48:23;;;;;;;3.50;2.60;;;4.70;99.90;;;;;;6122830;23;20435;-61
2022/12/28 03:50:54;;;;;;;2.17;2.00;;;4.80;99.90;;;;;;6123382;23;20403;-63
2022/12/28 03:53:26;;;;;;;4.80;1.80;;;4.70;99.90;;;;;;6123254;23;20430;-64
2022/12/28 03:56:04;;;;;;;3.03;1.67;;;4.70;99.90;;;;;;6123008;23;20871;-62
2022/12/28 03:58:31;;;;;;;2.60;2.17;;;4.70;99.90;;;;;;6115397;23;20434;-63
2022/12/28 04:00:58;;;;;;;3.20;2.73;;;4.70;99.90;;;;;;6121846;23;20450;-62
2022/12/28 04:03:25;;;;;;;2.43;1.90;;;4.60;99.90;;;;;;6122289;23;20431;-62
2022/12/28 04:05:57;;;;;;;2.10;1.90;;;4.60;99.90;;;;;;6122672;23;20414;-63
2022/12/28 04:08:24;;;;;;;1.97;1.77;;;4.60;99.90;;;;;;6120952;23;20442;-62
2022/12/28 04:10:51;;;;;;;5.03;2.67;;;4.60;99.90;;;;;;6123377;23;20368;-63
2022/12/28 04:13:18;;;;;;;2.40;1.90;;;4.60;99.90;;;;;;6123347;23;20435;-61
2022/12/28 04:15:54;;;;;;;3.73;1.97;;;4.60;99.90;;;;;;6122440;23;20400;-62
2022/12/28 04:18:21;;;;;;;2.60;1.63;;;4.60;99.90;;;;;;6122266;23;20388;-62
2022/12/28 04:20:48;;;;;;;7.33;2.00;;;4.70;99.90;;;;;;6122548;23;20504;-63
2022/12/28 04:23:30;;;;;;;4.03;2.00;;;4.60;99.90;;;;;;6122710;23;20419;-60
2022/12/28 04:26:01;;;;;;;3.60;1.93;;;4.70;99.90;;;;;;6123409;23;20387;-62
2022/12/28 04:28:28;;;;;;;2.87;2.40;;;4.70;99.90;;;;;;6112640;23;20398;-58
2022/12/28 04:30:59;;;;;;;2.30;1.83;;;4.60;99.90;;;;;;6123301;23;20387;-62
2022/12/28 04:33:29;;;;;;;5.23;2.47;;;4.60;99.90;;;;;;6123345;23;20397;-62
2022/12/28 04:36:06;;;;;;;1.97;1.30;;;4.60;99.90;;;;;;6122777;23;20419;-60
2022/12/28 04:38:35;;;;;;;2.13;1.37;;;4.60;99.90;;;;;;6122650;23;20420;-61
2022/12/28 04:41:02;;;;;;;1.80;1.43;;;4.60;99.90;;;;;;6123040;23;20460;-60
2022/12/28 04:43:33;;;;;;;3.10;1.73;;;4.60;99.90;;;;;;6122742;23;20424;-60
2022/12/28 04:46:04;;;;;;;2.70;1.80;;;4.60;99.90;;;;;;6121254;23;20403;-60
2022/12/28 04:48:34;;;;;;;3.30;1.40;;;4.70;99.90;;;;;;6121518;23;20392;-60
2022/12/28 04:51:06;;;;;;;6.03;2.13;;;4.70;99.90;;;;;;6113591;23;20400;-59
2022/12/28 04:53:37;;;;;;;1.73;1.33;;;4.70;99.90;;;;;;6121530;23;20384;-59
2022/12/28 04:56:05;;;;;;;1.90;1.57;;;4.70;99.90;;;;;;6121283;23;20403;-59
2022/12/28 04:58:33;;;;;;;3.90;1.50;;;4.70;99.90;;;;;;6121358;23;20427;-59
2022/12/28 05:01:04;;;;;;;1.90;1.70;;;4.70;99.90;;;;;;6121706;23;20447;-57
2022/12/28 05:03:31;;;;;;;3.20;1.20;;;4.80;99.90;;;;;;6120580;23;20434;-58
2022/12/28 05:06:01;;;;;;;2.10;1.57;;;4.80;99.90;;;;;;6121570;23;20391;-58
2022/12/28 05:08:30;;;;;;;1.97;1.53;;;4.80;99.90;;;;;;6121686;23;20408;-59
2022/12/28 05:11:01;;;;;;;1.60;1.50;;;4.70;99.90;;;;;;6121575;23;20396;-59
2022/12/28 05:13:31;;;;;;;2.13;1.43;;;4.70;99.90;;;;;;6121739;23;20399;-56
2022/12/28 05:16:01;;;;;;;1.73;1.17;;;4.70;99.90;;;;;;6121355;23;20696;-60
2022/12/28 05:18:28;;;;;;;3.97;1.83;;;4.70;99.90;;;;;;6121000;23;20403;-58
2022/12/28 05:20:59;;;;;;;3.90;1.43;;;4.70;99.90;;;;;;6121043;23;20439;-59
2022/12/28 05:23:29;;;;;;;7.50;1.63;;;4.70;99.90;;;;;;6115225;23;20407;-60
2022/12/28 05:26:00;;;;;;;4.87;2.30;;;4.70;99.90;;;;;;6121667;23;20388;-60
2022/12/28 05:28:30;;;;;;;4.13;1.70;;;4.80;99.90;;;;;;6115816;23;20388;-59
2022/12/28 05:31:00;;;;;;;2.53;1.40;;;4.80;99.90;;;;;;6121634;23;20483;-59
2022/12/28 05:33:29;;;;;;;3.27;1.20;;;4.80;99.90;;;;;;6121251;23;20410;-59
2022/12/28 05:35:56;;;;;;;3.17;1.13;;;4.90;99.90;;;;;;6112187;23;20427;-57
2022/12/28 05:38:26;;;;;;;1.53;1.27;;;4.80;99.90;;;;;;6121846;23;20403;-56
2022/12/28 05:40:55;;;;;;;2.00;1.30;;;4.80;99.90;;;;;;6121029;23;20466;-60
2022/12/28 05:43:25;;;;;;;6.70;1.10;;;4.90;99.90;;;;;;6121599;23;20392;-57
2022/12/28 05:45:52;;;;;;;1.53;1.13;;;4.90;99.90;;;;;;6121710;23;20426;-57
2022/12/28 05:48:18;;;;;;;2.93;1.50;;;4.90;99.90;;;;;;6121986;23;20422;-57
2022/12/28 05:50:46;;;;;;;3.63;1.67;;;4.90;99.90;;;;;;6121456;23;20423;-59
2022/12/28 05:53:12;;;;;;;2.07;1.47;;;4.90;99.90;;;;;;6115496;23;20416;-56
2022/12/28 05:55:39;;;;;;;3.00;1.50;;;5.00;99.90;;;;;;6118268;23;20472;-60
2022/12/28 05:58:07;;;;;;;1.80;1.10;;;5.00;99.90;;;;;;6121551;23;20399;-60
2022/12/28 06:00:36;;;;;;;3.90;1.83;;;5.00;99.90;;;;;;6121606;23;20483;-55
2022/12/28 06:03:02;;;;;;;2.37;1.73;;;5.00;99.90;;;;;;6122246;23;20411;-61
2022/12/28 06:05:29;;;;;;;4.63;1.50;;;5.00;99.90;;;;;;6121852;23;20415;-64
2022/12/28 06:07:56;;;;;;;2.60;1.57;;;5.00;99.90;;;;;;6122197;23;20419;-59
2022/12/28 06:10:31;;;;;;;1.67;0.90;;;5.00;99.90;;;;;;6121168;23;20443;-60
2022/12/28 06:12:58;;;;;;;3.00;1.60;;;5.00;99.90;;;;;;6121425;23;20391;-58
2022/12/28 06:15:24;;;;;;;2.20;1.80;;;5.00;99.90;;;;;;6121442;23;20427;-58
2022/12/28 06:17:54;;;;;;;1.50;1.03;;;5.00;99.90;;;;;;6121471;23;20388;-57
2022/12/28 06:20:27;;;;;;;4.57;1.63;;;5.00;99.90;;;;;;6121596;23;20458;-60
2022/12/28 06:22:53;;;;;;;2.13;1.40;;;5.10;99.90;;;;;;6122695;23;20375;-57
2022/12/28 06:25:20;;;;;;;2.17;1.60;;;5.10;99.90;;;;;;6121273;23;20403;-58
2022/12/28 06:27:47;;;;;;;3.93;1.40;;;5.10;99.90;;;;;;6121043;23;20399;-59
2022/12/28 06:30:16;;;;;;;1.27;1.17;;;5.10;99.90;;;;;;6120087;23;20395;-60
2022/12/28 06:32:43;;;;;;;3.07;2.57;;;5.10;99.90;;;;;;6120446;23;20410;-66
2022/12/28 06:35:11;;;;;;;1.97;1.57;;;5.20;99.90;;;;;;6119920;23;20435;-59
2022/12/28 06:37:38;;;;;;;1.87;1.10;;;5.20;99.90;;;;;;6120848;23;20387;-58
2022/12/28 06:40:06;;;;;;;4.63;1.63;;;5.30;99.90;;;;;;6120286;23;20458;-60
2022/12/28 06:42:33;;;;;;;6.60;1.30;;;5.30;99.90;;;;;;6120199;23;20407;-58
2022/12/28 06:45:00;;;;;;;1.60;1.30;;;5.30;99.90;;;;;;6120963;23;20391;-59
2022/12/28 06:47:26;;;;;;;1.63;1.50;;;5.30;99.90;;;;;;6121070;23;20432;-60
2022/12/28 06:49:54;;;;;;;2.30;1.63;;;5.30;99.90;;;;;;6121030;23;20383;-58
2022/12/28 06:52:22;;;;;;;1.90;1.23;;;5.30;99.90;;;;;;6120599;23;20419;-59
2022/12/28 06:54:49;;;;;;;1.50;1.27;;;5.30;99.90;;;;;;6120541;23;20408;-59
2022/12/28 06:57:16;;;;;;;7.60;3.17;;;5.20;99.90;;;;;;6120132;23;20439;-61
2022/12/28 06:59:43;;;;;;;2.37;1.47;;;5.20;99.90;;;;;;6112829;23;20418;-60
2022/12/28 07:02:10;;;;;;;5.40;1.40;;;5.20;99.90;;;;;;6119102;23;20435;-59
2022/12/28 07:04:37;;;;;;;4.37;1.30;;;5.20;99.90;;;;;;6120622;23;20415;-61
2022/12/28 07:07:08;;;;;;;2.20;1.70;;;5.10;99.90;;;;;;6120817;23;20423;-61
2022/12/28 07:09:36;;;;;;;2.90;2.60;;;5.10;99.90;;;;;;6122201;23;20384;-60
2022/12/28 07:12:06;;;;;;;1.90;1.53;;;5.10;99.90;;;;;;6122792;23;20431;-59
2022/12/28 07:14:33;;;;;;;3.43;2.00;;;5.10;99.90;;;;;;6122756;23;20407;-59
2022/12/28 07:17:00;;;;;;;1.53;1.37;;;5.10;99.90;;;;;;6122180;23;20418;-60
2022/12/28 07:19:29;;;;;;;1.27;1.13;;;5.00;99.90;;;;;;6121609;23;20395;-58
2022/12/28 07:21:56;;;;;;;3.30;1.77;;;5.00;99.90;;;;;;6117396;23;20725;-59
2022/12/28 07:24:26;;;;;;;4.73;1.57;;;5.00;99.90;;;;;;6118824;23;20411;-61
2022/12/28 07:26:54;;;;;;;2.83;2.07;;;5.00;99.90;;;;;;6121983;23;20430;-58
2022/12/28 07:29:23;;;;;;;1.93;1.50;;;5.10;99.90;;;;;;6121920;23;20439;-60
2022/12/28 07:31:50;;;;;;;2.40;2.00;;;5.10;99.90;;;;;;6122025;23;20430;-61
2022/12/28 07:34:17;;;;;;;4.50;2.00;;;5.10;99.90;;;;;;6122359;23;20430;-60
2022/12/28 07:36:44;;;;;;;1.70;1.30;;;5.10;99.90;;;;;;6122004;23;20454;-60
2022/12/28 07:39:10;;;;;;;1.80;1.40;;;5.20;99.90;;;;;;6122770;23;20379;-58
2022/12/28 07:41:40;;;;;;;3.80;2.10;;;5.20;99.90;;;;;;6109737;23;20470;-59
2022/12/28 07:44:09;;;;;;;2.87;1.77;;;5.20;99.90;;;;;;6122493;23;20415;-57
2022/12/28 07:46:37;;;;;;;12.47;1.80;;;5.20;99.90;;;;;;6122005;23;20428;-58
2022/12/28 07:49:05;;;;;;;3.00;1.80;;;5.30;99.90;;;;;;6122303;23;20415;-59
2022/12/28 07:51:33;;;;;;;2.20;1.40;;;5.20;99.90;;;;;;6122007;23;20439;-59
2022/12/28 07:54:00;;;;;;;3.17;1.90;;;5.30;99.90;;;;;;6122273;23;20419;-60
2022/12/28 07:56:29;;;;;;;2.00;1.47;;;5.30;99.90;;;;;;6122201;23;20390;-59
2022/12/28 07:58:57;;;;;;;2.77;1.70;;;5.40;99.90;;;;;;6122740;23;20410;-58
2022/12/28 08:01:31;;;;;;;4.00;2.00;;;5.40;99.90;;;;;;6122322;23;20423;-59
2022/12/28 08:04:00;;;;;;;2.67;1.53;;;5.40;99.90;;;;;;6123001;23;20380;-58
2022/12/28 08:06:32;;;;;;;4.80;2.07;;;5.40;99.90;;;;;;6122931;23;20944;-58
2022/12/28 08:09:00;;;;;;;2.37;1.83;;;5.40;99.90;;;;;;6122627;23;20444;-58
2022/12/28 08:11:29;;;;;;;2.10;1.40;;;5.40;99.90;;;;;;6121367;23;20399;-59
2022/12/28 08:13:57;;;;;;;5.67;2.60;;;5.50;99.90;;;;;;6121404;23;20456;-57
2022/12/28 08:16:28;;;;;;;5.00;1.90;;;5.50;99.90;;;;;;6121743;23;20415;-57
2022/12/28 08:18:56;;;;;;;3.03;1.90;;;5.50;99.90;;;;;;6121669;23;20443;-58
2022/12/28 08:21:29;;;;;;;4.13;2.03;;;5.50;99.90;;;;;;6120946;23;20467;-57
2022/12/28 08:23:56;;;;;;;2.80;1.97;;;5.50;99.90;;;;;;6121601;23;20420;-61
2022/12/28 08:26:25;;;;;;;2.80;1.87;;;5.50;99.90;;;;;;6121422;23;20404;-59
2022/12/28 08:28:54;;;;;;;4.83;1.83;;;5.50;99.90;;;;;;6121176;23;20443;-58
2022/12/28 08:31:23;;;;;;;2.10;1.73;;;5.60;99.90;;;;;;6121475;23;20387;-57
2022/12/28 08:33:53;;;;;;;4.90;2.10;;;5.60;99.90;;;;;;6122380;23;20415;-62
2022/12/28 08:36:21;;;;;;;2.60;1.27;;;5.60;99.90;;;;;;6123506;23;20398;-59
2022/12/28 08:38:50;;;;;;;5.80;1.90;;;5.60;99.90;;;;;;6123506;23;20427;-64
2022/12/28 08:41:25;;;;;;;7.07;2.67;;;5.60;99.90;;;;;;6124229;23;20439;-63
2022/12/28 08:43:53;;;;;;;2.13;1.80;;;5.70;99.90;;;;;;6123619;23;20431;-65
2022/12/28 08:46:22;;;;;;;1.40;1.27;;;5.70;99.90;;;;;;6123430;23;20404;-59
2022/12/28 08:48:53;;;;;;;4.63;1.97;;;5.70;99.90;;;;;;6123200;23;20427;-59
2022/12/28 08:51:24;;;;;;;2.87;1.70;;;5.80;99.90;;;;;;6123803;23;20387;-62
2022/12/28 08:53:52;;;;;;;2.23;1.63;;;5.80;99.90;;;;;;6122937;23;20419;-61
2022/12/28 08:56:23;;;;;;;4.40;1.63;;;5.90;99.90;;;;;;6123091;23;20479;-58
2022/12/28 08:58:50;;;;;;;2.83;1.60;;;5.90;99.90;;;;;;6123021;23;20415;-60
2022/12/28 09:01:19;;;;;;;8.53;1.60;;;6.00;99.90;;;;;;6123003;23;20420;-59
2022/12/28 09:03:49;;;;;;;4.77;2.07;;;6.00;99.90;;;;;;6122489;23;20418;-61
2022/12/28 09:06:17;;;;;;;2.80;1.77;;;6.10;99.90;;;;;;6121878;23;20400;-60
2022/12/28 09:08:49;;;;;;;4.20;2.43;;;6.20;99.90;;;;;;6121820;23;20411;-61
2022/12/28 09:11:16;;;;;;;1.50;1.40;;;6.30;99.90;;;;;;6121602;23;20376;-60
2022/12/28 09:13:43;;;;;;;1.37;1.23;;;6.30;99.90;;;;;;6121373;23;20424;-59
2022/12/28 09:16:12;;;;;;;3.97;1.20;;;6.40;99.90;;;;;;6121369;23;20415;-58
2022/12/28 09:18:41;;;;;;;1.67;1.30;;;6.40;99.90;;;;;;6120578;23;20431;-58
2022/12/28 09:21:09;;;;;;;3.00;1.97;;;6.40;99.90;;;;;;6121057;23;20435;-64
2022/12/28 09:23:37;;;;;;;2.27;1.53;;;6.40;99.90;;;;;;6120625;23;20432;-59
2022/12/28 09:26:09;;;;;;;2.00;1.40;;;6.40;99.90;;;;;;6120650;23;20391;-59
2022/12/28 09:28:36;;;;;;;2.03;1.70;;;6.40;99.90;;;;;;6121837;23;20427;-59
2022/12/28 09:31:04;;;;;;;2.23;1.53;;;6.40;99.90;;;;;;6120827;23;20384;-64
2022/12/28 09:36:17;;;;;;;1.80;1.50;;;6.50;99.90;;;;;;6120736;23;20379;-60
2022/12/28 09:38:45;;;;;;;2.00;1.40;;;6.50;99.90;;;;;;6120916;23;20436;-59
2022/12/28 09:41:22;;;;;;;3.70;1.70;;;6.50;99.90;;;;;;6120983;23;20423;-59
2022/12/28 09:43:52;;;;;;;4.20;2.27;;;6.60;99.90;;;;;;6121129;23;20396;-62
2022/12/28 09:46:22;;;;;;;3.30;1.47;;;6.60;99.90;;;;;;6121648;23;20399;-56
2022/12/28 09:48:54;;;;;;;2.90;2.00;;;6.60;99.90;;;;;;6120970;23;20395;-61
2022/12/28 09:51:24;;;;;;;2.80;1.53;;;6.70;99.90;;;;;;6121460;23;20384;-60
2022/12/28 09:53:51;;;;;;;2.20;1.50;;;6.70;99.90;;;;;;6120320;23;20408;-59
2022/12/28 09:56:28;;;;;;;2.20;1.80;;;6.70;99.90;;;;;;6120243;23;20392;-59
2022/12/28 09:58:56;;;;;;;5.37;1.30;;;6.80;99.90;;;;;;6120779;23;20394;-59
2022/12/28 10:01:24;;;;;;;2.87;1.97;;;6.90;99.90;;;;;;6119839;23;20435;-61
2022/12/28 10:03:51;;;;;;;3.47;1.90;;;6.90;99.90;;;;;;6120632;23;20410;-57
2022/12/28 10:06:22;;;;;;;3.90;2.17;;;6.90;99.90;;;;;;6120230;23;20404;-58
2022/12/28 10:08:51;;;;;;;6.80;1.70;;;7.00;99.90;;;;;;6120322;23;20394;-59
2022/12/28 10:11:23;;;;;;;2.27;1.60;;;7.00;99.90;;;;;;6120112;23;20415;-58
2022/12/28 10:13:57;;;;;;;5.93;2.10;;;7.00;99.90;;;;;;6119727;23;20392;-60
2022/12/28 10:16:26;;;;;;;2.63;1.50;;;7.00;99.90;;;;;;6119992;23;20402;-61
2022/12/28 10:18:53;;;;;;;4.77;1.80;;;7.10;99.90;;;;;;6119757;23;20391;-59
2022/12/28 10:21:27;;;;;;;8.13;1.97;;;7.10;99.90;;;;;;6120072;23;20458;-61
2022/12/28 10:23:57;;;;;;;4.67;2.30;;;7.20;99.90;;;;;;6119851;23;20392;-59
2022/12/28 10:26:25;;;;;;;4.60;2.43;;;7.20;99.90;;;;;;6119531;23;20858;-59
2022/12/28 10:28:54;;;;;;;2.40;1.50;;;7.20;99.90;;;;;;6120466;23;20466;-58
2022/12/28 10:31:32;;;;;;;2.50;1.70;;;7.20;99.90;;;;;;6119702;23;20399;-59
2022/12/28 10:33:59;;;;;;;7.17;2.80;;;7.30;99.90;;;;;;6120677;23;20392;-54
2022/12/28 10:36:27;;;;;;;2.40;1.70;;;7.30;99.90;;;;;;6120975;23;20408;-59
2022/12/28 10:38:56;;;;;;;2.97;1.90;;;7.30;99.90;;;;;;6120497;23;20404;-60
2022/12/28 10:41:36;;;;;;;2.50;1.50;;;7.30;99.90;;;;;;6120994;23;20459;-59
2022/12/28 10:44:19;;;;;;;4.20;1.60;;;7.30;99.90;;;;;;6123971;23;20463;-59
2022/12/28 10:46:53;;;;;;;2.07;1.87;;;7.30;99.90;;;;;;6125011;23;20375;-59
2022/12/28 10:49:21;;;;;;;1.73;1.50;;;7.30;99.90;;;;;;6124601;23;20402;-60
2022/12/28 10:52:00;;;;;;;2.20;1.50;;;7.30;99.90;;;;;;6125286;23;20391;-60
2022/12/28 10:54:27;;;;;;;1.30;1.20;;;7.30;99.90;;;;;;6125538;23;20402;-61
2022/12/28 10:56:57;;;;;;;1.77;1.60;;;7.30;99.90;;;;;;6125374;23;20404;-62
2022/12/28 10:59:26;;;;;;;2.03;1.80;;;7.30;99.90;;;;;;6124198;23;20442;-55
2022/12/28 11:01:55;;;;;;;4.30;2.43;;;7.40;99.90;;;;;;6123999;23;20459;-53
2022/12/28 11:04:24;;;;;;;5.97;1.80;;;7.40;99.90;;;;;;6123197;23;20403;-60
2022/12/28 11:06:53;;;;;;;2.10;1.70;;;7.40;99.90;;;;;;6123706;23;20443;-59
2022/12/28 11:09:23;;;;;;;2.70;1.97;;;7.50;99.90;;;;;;6124797;23;20403;-63
2022/12/28 11:11:52;;;;;;;7.37;2.60;;;7.50;99.90;;;;;;6125241;23;20376;-60
2022/12/28 11:14:30;;;;;;;2.03;1.50;;;7.60;99.90;;;;;;6125871;23;20874;-61
2022/12/28 11:16:58;;;;;;;6.83;1.83;;;7.60;99.90;;;;;;6126589;23;20426;-62
2022/12/28 11:19:25;;;;;;;1.90;1.70;;;7.70;99.90;;;;;;6126591;23;20411;-58
2022/12/28 11:21:53;;;;;;;2.07;1.60;;;7.70;99.90;;;;;;6125194;23;20485;-58
2022/12/28 11:24:25;;;;;;;2.33;1.73;;;7.80;99.90;;;;;;6123528;23;20455;-60
2022/12/28 11:26:53;;;;;;;2.70;1.33;;;7.80;99.90;;;;;;6123467;23;20435;-58
2022/12/28 11:29:20;;;;;;;5.60;2.33;;;7.80;99.90;;;;;;6122642;23;20406;-59
2022/12/28 11:31:50;;;;;;;3.13;2.30;;;7.90;99.90;;;;;;6122870;23;20438;-60
2022/12/28 11:34:20;;;;;;;11.10;1.93;;;8.00;99.90;;;;;;6124323;23;20407;-59
2022/12/28 11:36:48;;;;;;;2.80;1.90;;;8.00;99.90;;;;;;6122355;23;20505;-57
2022/12/28 11:39:43;;;;;;;3.83;1.93;;;8.00;99.90;;;;;;6122632;23;20475;-58
2022/12/28 11:42:10;;;;;;;2.20;1.83;;;8.00;99.90;;;;;;6116306;23;20462;-59
2022/12/28 11:44:56;;;;;;;1.80;1.70;;;8.10;99.90;;;;;;6122702;23;20419;-59
2022/12/28 11:47:32;;;;;;;4.13;1.97;;;8.10;99.90;;;;;;6122963;23;20537;-57
2022/12/28 11:50:38;;;;;;;2.63;1.53;;;8.20;99.90;;;;;;6122177;23;20467;-56
2022/12/28 11:53:19;;;;;;;2.30;1.70;;;8.20;99.90;;;;;;6122544;23;20471;-61
2022/12/28 11:56:05;;;;;;;4.83;3.37;;;8.20;99.90;;;;;;6099220;23;20419;-60
2022/12/28 11:59:04;;;;;;;3.30;2.57;;;8.20;99.90;;;;;;6121290;23;20387;-58
2022/12/28 12:01:45;;;;;;;4.50;2.90;;;8.20;99.90;;;;;;6121425;23;20451;-59
2022/12/28 12:04:39;;;;;;;3.13;1.77;;;8.20;99.90;;;;;;6121511;23;20379;-59
2022/12/28 12:07:18;;;;;;;3.37;2.10;;;8.30;99.90;;;;;;6121159;23;20438;-58
2022/12/28 12:09:48;;;;;;;2.17;1.97;;;8.20;99.90;;;;;;6121351;23;20396;-59
2022/12/28 12:12:47;;;;;;;3.67;2.50;;;8.20;99.90;;;;;;6122189;23;20408;-57
2022/12/28 12:15:18;;;;;;;5.40;2.50;;;8.30;99.90;;;;;;6123254;23;20420;-59
2022/12/28 12:17:49;;;;;;;3.50;2.30;;;8.30;99.90;;;;;;6122494;23;20415;-57
2022/12/28 12:20:25;;;;;;;2.00;1.77;;;8.30;99.90;;;;;;6122864;23;20380;-63
2022/12/28 12:22:56;;;;;;;1.80;1.30;;;8.30;99.90;;;;;;6121500;23;20506;-58
2022/12/28 12:25:28;;;;;;;3.00;1.83;;;8.30;99.90;;;;;;6122859;23;20384;-59
2022/12/28 12:27:59;;;;;;;3.20;1.70;;;8.20;99.90;;;;;;6120951;23;20435;-58
2022/12/28 12:30:27;;;;;;;4.20;2.07;;;8.30;99.90;;;;;;6111995;23;20396;-59
2022/12/28 12:32:58;;;;;;;1.97;1.53;;;8.40;99.90;;;;;;6120282;23;20435;-60
2022/12/28 12:35:29;;;;;;;1.97;1.60;;;8.50;99.90;;;;;;6120438;23;20388;-56
2022/12/28 12:38:01;;;;;;;1.43;1.33;;;8.50;99.90;;;;;;6120266;23;20435;-58
2022/12/28 12:41:07;;;;;;;2.60;1.60;;;8.50;99.90;;;;;;6120408;23;20428;-56
2022/12/28 12:43:48;;;;;;;4.97;2.60;;;8.50;99.90;;;;;;6091061;23;20462;-59
2022/12/28 12:46:46;;;;;;;1.90;1.60;;;8.60;99.90;;;;;;6120454;23;20399;-62
2022/12/28 12:49:40;;;;;;;2.70;1.60;;;8.60;99.90;;;;;;6120335;23;20396;-60
2022/12/28 12:52:30;;;;;;;2.33;1.73;;;8.60;99.90;;;;;;6120411;23;20443;-63
2022/12/28 12:55:18;;;;;;;2.70;1.93;;;8.60;99.90;;;;;;6112605;23;20388;-60
2022/12/28 12:57:54;;;;;;;2.50;1.83;;;8.80;99.90;;;;;;6120532;23;20474;-60
2022/12/28 13:00:23;;;;;;;3.70;2.13;;;8.80;99.90;;;;;;6120455;23;20407;-61
2022/12/28 13:03:15;;;;;;;5.47;1.87;;;8.90;99.90;;;;;;6119841;23;20447;-60
2022/12/28 13:05:48;;;;;;;5.00;1.87;;;8.90;99.90;;;;;;6120329;23;20396;-59
2022/12/28 13:08:25;;;;;;;4.80;2.90;;;9.00;99.90;;;;;;6120379;23;20423;-60
2022/12/28 13:10:53;;;;;;;2.80;1.43;;;9.00;99.90;;;;;;6120644;23;20392;-60
2022/12/28 13:13:28;;;;;;;1.73;1.47;;;9.00;99.90;;;;;;6120769;23;20431;-59
2022/12/28 13:16:01;;;;;;;3.00;1.97;;;9.10;99.90;;;;;;6114574;23;20426;-60
2022/12/28 13:18:28;;;;;;;2.23;1.70;;;9.10;99.90;;;;;;6120109;23;20434;-59
2022/12/28 13:20:56;;;;;;;3.53;2.17;;;9.20;99.90;;;;;;6119207;23;20403;-58
2022/12/28 13:23:28;;;;;;;1.60;1.50;;;9.20;99.90;;;;;;6119562;23;20451;-58
2022/12/28 13:25:57;;;;;;;4.80;1.87;;;9.20;99.90;;;;;;6119502;23;20392;-56
2022/12/28 13:28:28;;;;;;;4.47;1.90;;;9.20;99.90;;;;;;6119751;23;20438;-58
2022/12/28 13:31:02;;;;;;;2.53;1.97;;;9.20;99.90;;;;;;6120901;23;20407;-59
2022/12/28 13:33:30;;;;;;;3.40;2.13;;;9.20;99.90;;;;;;6121673;23;20431;-55
2022/12/28 13:36:13;;;;;;;1.60;1.50;;;9.20;99.90;;;;;;6122537;23;20407;-56
2022/12/28 13:38:41;;;;;;;1.33;1.23;;;9.20;99.90;;;;;;6122647;23;20446;-60
2022/12/28 13:41:21;;;;;;;2.60;1.50;;;9.20;99.90;;;;;;6122659;23;20435;-57
2022/12/28 13:44:21;;;;;;;2.20;1.73;;;9.20;99.90;;;;;;6121852;23;20446;-59
2022/12/28 13:46:53;;;;;;;2.53;1.40;;;9.20;99.90;;;;;;6112562;23;20399;-58
2022/12/28 13:49:22;;;;;;;4.77;1.67;;;9.10;99.90;;;;;;6119667;23;20436;-57
2022/12/28 13:51:50;;;;;;;2.67;1.63;;;9.10;99.90;;;;;;6120420;23;20744;-59
2022/12/28 13:54:18;;;;;;;3.60;1.90;;;9.10;99.90;;;;;;6120361;23;20450;-58